createdAt,value
2017-04-14T00:00:47.993Z,7.45
2017-04-14T00:01:48.314Z,7.31
2017-04-14T00:02:48.335Z,7.39
2017-04-14T00:03:48.355Z,7.23
2017-04-14T00:04:48.371Z,7.28
2017-04-14T00:06:02.705Z,7.25
2017-04-14T00:06:48.412Z,7.24
2017-04-14T00:07:48.433Z,7.27
2017-04-14T00:08:48.456Z,7.3
2017-04-14T00:09:48.471Z,7.21
2017-04-14T00:10:48.494Z,7.15
2017-04-14T00:12:03.125Z,7.23
2017-04-14T00:12:48.527Z,7.27
2017-04-14T00:13:48.551Z,7.23
2017-04-14T00:14:48.569Z,7.25
2017-04-14T00:15:48.586Z,7.28
2017-04-14T00:16:48.302Z,7.21
2017-04-14T00:17:48.626Z,7.16
2017-04-14T00:18:48.341Z,7.17
2017-04-14T00:19:48.362Z,7.24
2017-04-14T00:20:48.686Z,7.15
2017-04-14T00:21:48.701Z,7.16
2017-04-14T00:22:48.726Z,7.16
2017-04-14T00:23:48.745Z,7.16
2017-04-14T00:25:03.375Z,7.17
2017-04-14T00:25:48.778Z,7.07
2017-04-14T00:26:48.798Z,7.09
2017-04-14T00:28:03.444Z,7.16
2017-04-14T00:28:48.836Z,7.1
2017-04-14T00:29:48.857Z,7.02
2017-04-14T00:30:48.875Z,7.07
2017-04-14T00:31:48.893Z,6.98
2017-04-14T00:32:48.915Z,7.09
2017-04-14T00:34:48.950Z,7.03
2017-04-14T00:35:48.972Z,7.05
2017-04-14T00:36:49.045Z,6.97
2017-04-14T00:37:49.011Z,6.97
2017-04-14T00:38:49.029Z,6.91
2017-04-14T00:40:03.666Z,6.95
2017-04-14T00:41:03.683Z,6.92
2017-04-14T00:41:49.087Z,6.97
2017-04-14T00:42:49.108Z,6.99
2017-04-14T00:44:03.745Z,6.98
2017-04-14T00:44:49.141Z,6.97
2017-04-14T00:45:49.167Z,6.87
2017-04-14T00:46:49.182Z,6.92
2017-04-14T00:47:49.213Z,6.94
2017-04-14T00:48:49.223Z,6.94
2017-04-14T00:49:49.241Z,6.77
2017-04-14T00:50:49.264Z,6.84
2017-04-14T00:51:49.279Z,6.84
2017-04-14T00:53:49.318Z,6.81
2017-04-14T00:54:49.335Z,6.77
2017-04-14T00:56:03.972Z,6.8
2017-04-14T00:56:49.377Z,6.89
2017-04-14T00:57:49.397Z,6.87
2017-04-14T00:58:49.414Z,6.79
2017-04-14T01:00:04.053Z,6.71
2017-04-14T01:00:49.449Z,6.74
2017-04-14T01:01:49.469Z,6.84
2017-04-14T01:02:49.490Z,6.71
2017-04-14T01:03:49.508Z,6.71
2017-04-14T01:04:49.527Z,6.74
2017-04-14T01:05:49.551Z,6.73
2017-04-14T01:06:49.565Z,6.66
2017-04-14T01:08:49.608Z,6.74
2017-04-14T01:11:03.954Z,6.74
2017-04-14T01:11:49.659Z,6.74
2017-04-14T01:12:49.682Z,6.62
2017-04-14T01:13:49.705Z,6.71
2017-04-14T01:15:04.335Z,6.59
2017-04-14T01:15:49.740Z,6.64
2017-04-14T01:16:49.757Z,6.58
2017-04-14T01:17:49.777Z,6.58
2017-04-14T01:19:49.814Z,6.56
2017-04-14T01:20:49.833Z,6.66
2017-04-14T01:21:49.854Z,6.51
2017-04-14T01:22:49.870Z,6.4
2017-04-14T01:23:49.891Z,6.51
2017-04-14T01:25:49.929Z,6.52
2017-04-14T01:26:49.945Z,6.58
2017-04-14T01:28:04.581Z,6.41
2017-04-14T01:28:49.687Z,6.38
2017-04-14T01:29:50.004Z,6.44
2017-04-14T01:30:50.021Z,6.44
2017-04-14T01:31:50.041Z,6.44
2017-04-14T01:32:50.060Z,6.4
2017-04-14T01:33:50.083Z,6.38
2017-04-14T01:34:50.098Z,6.43
2017-04-14T01:35:50.115Z,6.4
2017-04-14T01:36:50.136Z,6.34
2017-04-14T01:38:04.775Z,6.33
2017-04-14T01:38:50.188Z,6.33
2017-04-14T01:40:50.212Z,6.36
2017-04-14T01:41:50.231Z,6.41
2017-04-14T01:42:50.254Z,6.38
2017-04-14T01:43:50.270Z,6.31
2017-04-14T01:45:50.305Z,6.46
2017-04-14T01:47:04.939Z,6.43
2017-04-14T01:47:50.348Z,6.4
2017-04-14T01:48:50.364Z,6.51
2017-04-14T01:49:50.380Z,6.4
2017-04-14T01:50:50.398Z,6.36
2017-04-14T01:51:50.420Z,6.34
2017-04-14T01:52:50.446Z,6.22
2017-04-14T01:54:50.477Z,6.15
2017-04-14T01:56:50.518Z,6.27
2017-04-14T01:57:50.531Z,6.3
2017-04-14T01:58:50.554Z,6.21
2017-04-14T01:59:50.570Z,6.18
2017-04-14T02:01:05.202Z,6.22
2017-04-14T02:01:50.304Z,6.22
2017-04-14T02:03:05.242Z,6.18
2017-04-14T02:03:50.343Z,6.15
2017-04-14T02:04:50.360Z,6.25
2017-04-14T02:05:50.683Z,6.25
2017-04-14T02:06:50.702Z,6.25
2017-04-14T02:07:50.726Z,6.21
2017-04-14T02:08:50.742Z,6.19
2017-04-14T02:09:50.760Z,6.18
2017-04-14T02:10:50.775Z,6.15
2017-04-14T02:11:50.795Z,6.15
2017-04-14T02:13:05.430Z,6.28
2017-04-14T02:13:50.835Z,6.28
2017-04-14T02:15:05.467Z,6.25
2017-04-14T02:15:50.873Z,6.19
2017-04-14T02:16:50.887Z,6.18
2017-04-14T02:17:50.909Z,6.18
2017-04-14T02:19:05.539Z,6.11
2017-04-14T02:19:50.946Z,6.09
2017-04-14T02:20:50.963Z,6.12
2017-04-14T02:21:50.981Z,6.11
2017-04-14T02:22:51.001Z,6.11
2017-04-14T02:23:51.019Z,6.08
2017-04-14T02:24:51.035Z,6.03
2017-04-14T02:26:51.081Z,6.08
2017-04-14T02:27:51.101Z,6.06
2017-04-14T02:29:05.730Z,6.06
2017-04-14T02:29:51.134Z,6.15
2017-04-14T02:30:51.147Z,6.03
2017-04-14T02:31:51.168Z,6.14
2017-04-14T02:32:51.186Z,6.06
2017-04-14T02:33:51.206Z,6.08
2017-04-14T02:35:05.838Z,6.06
2017-04-14T02:35:51.245Z,6.01
2017-04-14T02:36:51.262Z,6.04
2017-04-14T02:37:51.280Z,6.03
2017-04-14T02:38:51.296Z,6.03
2017-04-14T02:40:51.336Z,5.97
2017-04-14T02:41:51.356Z,6.09
2017-04-14T02:42:51.385Z,6.01
2017-04-14T02:43:51.395Z,6.08
2017-04-14T02:44:51.107Z,6
2017-04-14T02:45:51.428Z,6.06
2017-04-14T02:46:51.446Z,6
2017-04-14T02:47:51.523Z,5.99
2017-04-14T02:48:51.489Z,6.01
2017-04-14T02:50:06.118Z,5.97
2017-04-14T02:50:51.567Z,5.99
2017-04-14T02:51:51.541Z,5.96
2017-04-14T02:52:51.562Z,5.99
2017-04-14T02:53:51.581Z,6.06
2017-04-14T02:54:51.599Z,6
2017-04-14T02:56:51.638Z,6.04
2017-04-14T02:57:51.955Z,5.99
2017-04-14T02:58:51.672Z,6.01
2017-04-14T02:59:51.694Z,6.01
2017-04-14T03:00:51.712Z,6
2017-04-14T03:01:51.726Z,5.94
2017-04-14T03:02:51.747Z,5.81
2017-04-14T03:03:51.767Z,5.83
2017-04-14T03:04:51.782Z,5.96
2017-04-14T03:05:51.801Z,5.82
2017-04-14T03:06:51.820Z,5.83
2017-04-14T03:07:51.839Z,5.81
2017-04-14T03:08:51.857Z,5.76
2017-04-14T03:09:51.880Z,5.76
2017-04-14T03:10:51.899Z,5.75
2017-04-14T03:11:51.913Z,5.89
2017-04-14T03:12:51.930Z,5.83
2017-04-14T03:14:51.967Z,5.74
2017-04-14T03:15:51.681Z,5.76
2017-04-14T03:16:52.004Z,5.79
2017-04-14T03:18:06.637Z,5.72
2017-04-14T03:18:52.046Z,5.74
2017-04-14T03:19:52.068Z,5.76
2017-04-14T03:20:52.077Z,5.75
2017-04-14T03:22:06.712Z,5.68
2017-04-14T03:22:52.118Z,5.71
2017-04-14T03:23:52.135Z,5.74
2017-04-14T03:24:52.150Z,5.74
2017-04-14T03:25:52.170Z,5.65
2017-04-14T03:26:52.196Z,5.78
2017-04-14T03:27:52.207Z,5.65
2017-04-14T03:29:52.241Z,5.79
2017-04-14T03:31:52.279Z,5.72
2017-04-14T03:32:52.298Z,5.79
2017-04-14T03:33:52.321Z,5.82
2017-04-14T03:35:06.950Z,5.85
2017-04-14T03:35:52.352Z,5.83
2017-04-14T03:36:52.372Z,5.72
2017-04-14T03:38:07.005Z,5.72
2017-04-14T03:38:52.408Z,5.65
2017-04-14T03:39:52.426Z,5.71
2017-04-14T03:40:52.442Z,5.65
2017-04-14T03:41:52.462Z,5.72
2017-04-14T03:42:52.482Z,5.67
2017-04-14T03:43:52.504Z,5.63
2017-04-14T03:45:52.538Z,5.57
2017-04-14T03:48:07.191Z,5.68
2017-04-14T03:49:07.209Z,5.64
2017-04-14T03:50:07.225Z,5.63
2017-04-14T03:50:52.629Z,5.6
2017-04-14T03:51:52.644Z,5.63
2017-04-14T03:52:52.666Z,5.6
2017-04-14T03:54:07.301Z,5.65
2017-04-14T03:54:52.704Z,5.54
2017-04-14T03:55:52.719Z,5.64
2017-04-14T03:56:52.738Z,5.58
2017-04-14T03:57:52.760Z,5.6
2017-04-14T03:58:52.782Z,5.58
2017-04-14T03:59:52.794Z,5.71
2017-04-14T04:00:52.816Z,5.72
2017-04-14T04:01:52.828Z,5.82
2017-04-14T04:02:52.861Z,5.94
2017-04-14T04:03:52.871Z,5.96
2017-04-14T04:04:52.889Z,6.01
2017-04-14T04:05:52.902Z,6.01
2017-04-14T04:07:07.536Z,6.08
2017-04-14T04:07:52.942Z,6.17
2017-04-14T04:08:52.961Z,6.14
2017-04-14T04:10:07.590Z,6.12
2017-04-14T04:10:52.993Z,6.12
2017-04-14T04:11:53.015Z,6.12
2017-04-14T04:12:53.032Z,6.06
2017-04-14T04:13:53.048Z,6.17
2017-04-14T04:14:53.069Z,6.14
2017-04-14T04:15:53.135Z,6.21
2017-04-14T04:17:53.130Z,6.08
2017-04-14T04:18:53.147Z,6.11
2017-04-14T04:19:53.165Z,6.12
2017-04-14T04:20:53.177Z,6.12
2017-04-14T04:22:07.812Z,6.19
2017-04-14T04:22:53.216Z,6.15
2017-04-14T04:23:53.235Z,6.14
2017-04-14T04:25:07.867Z,6.19
2017-04-14T04:25:53.270Z,6.18
2017-04-14T04:26:53.290Z,6.18
2017-04-14T04:28:53.326Z,6.31
2017-04-14T04:29:53.345Z,6.31
2017-04-14T04:30:53.362Z,6.44
2017-04-14T04:31:53.381Z,6.54
2017-04-14T04:32:53.402Z,6.55
2017-04-14T04:33:53.419Z,6.59
2017-04-14T04:34:53.437Z,6.56
2017-04-14T04:35:53.456Z,6.56
2017-04-14T04:36:53.477Z,6.62
2017-04-14T04:38:08.108Z,6.61
2017-04-14T04:38:53.513Z,6.64
2017-04-14T04:39:53.530Z,6.67
2017-04-14T04:40:53.551Z,6.62
2017-04-14T04:41:53.569Z,6.66
2017-04-14T04:42:53.595Z,6.64
2017-04-14T04:43:53.301Z,6.76
2017-04-14T04:44:53.622Z,6.81
2017-04-14T04:45:53.641Z,6.89
2017-04-14T04:46:53.665Z,6.99
2017-04-14T04:47:53.682Z,6.98
2017-04-14T04:48:53.697Z,6.98
2017-04-14T04:49:53.715Z,6.95
2017-04-14T04:50:53.739Z,7.12
2017-04-14T04:51:53.757Z,7.03
2017-04-14T04:52:53.770Z,6.97
2017-04-14T04:53:53.797Z,6.88
2017-04-14T04:54:53.811Z,6.91
2017-04-14T04:55:53.828Z,6.89
2017-04-14T04:57:08.471Z,6.91
2017-04-14T04:57:53.978Z,6.81
2017-04-14T04:58:53.888Z,6.84
2017-04-14T04:59:53.907Z,6.8
2017-04-14T05:00:53.923Z,6.79
2017-04-14T05:01:53.945Z,6.87
2017-04-14T05:02:53.967Z,6.8
2017-04-14T05:03:53.979Z,6.85
2017-04-14T05:04:53.997Z,6.85
2017-04-14T05:05:54.016Z,6.88
2017-04-14T05:06:54.035Z,6.88
2017-04-14T05:07:53.758Z,6.95
2017-04-14T05:08:54.077Z,6.92
2017-04-14T05:09:54.093Z,6.95
2017-04-14T05:10:54.111Z,6.95
2017-04-14T05:11:54.130Z,6.92
2017-04-14T05:13:08.764Z,6.95
2017-04-14T05:13:54.168Z,6.95
2017-04-14T05:14:54.185Z,7.12
2017-04-14T05:15:54.208Z,7.16
2017-04-14T05:16:54.222Z,7.21
2017-04-14T05:17:54.242Z,7.25
2017-04-14T05:18:54.263Z,7.21
2017-04-14T05:19:54.293Z,7.23
2017-04-14T05:20:54.297Z,7.25
2017-04-14T05:22:54.341Z,7.24
2017-04-14T05:23:54.357Z,7.28
2017-04-14T05:25:08.990Z,7.32
2017-04-14T05:25:54.392Z,7.28
2017-04-14T05:26:54.417Z,7.13
2017-04-14T05:27:54.433Z,7.12
2017-04-14T05:29:09.066Z,7.24
2017-04-14T05:30:54.486Z,7.24
2017-04-14T05:31:54.506Z,7.28
2017-04-14T05:32:54.539Z,7.37
2017-04-14T05:33:54.543Z,7.4
2017-04-14T05:34:54.570Z,7.48
2017-04-14T05:36:54.600Z,7.52
2017-04-14T05:38:54.646Z,7.48
2017-04-14T05:39:54.660Z,7.71
2017-04-14T05:40:54.678Z,7.58
2017-04-14T05:41:54.700Z,7.63
2017-04-14T05:42:54.720Z,7.57
2017-04-14T05:43:54.734Z,7.67
2017-04-14T05:45:09.370Z,8.02
2017-04-14T05:45:54.775Z,8.26
2017-04-14T05:46:54.794Z,8.28
2017-04-14T05:47:54.814Z,8.44
2017-04-14T05:48:54.836Z,8.45
2017-04-14T05:49:54.855Z,8.33
2017-04-14T05:50:54.876Z,8.38
2017-04-14T05:51:54.591Z,8.4
2017-04-14T05:52:54.919Z,9.13
2017-04-14T05:53:54.934Z,9.47
2017-04-14T05:54:54.960Z,9.48
2017-04-14T05:56:09.595Z,9.93
2017-04-14T05:57:09.616Z,10.18
2017-04-14T05:57:55.023Z,10.07
2017-04-14T05:58:55.051Z,9.89
2017-04-14T06:00:09.684Z,9.75
2017-04-14T06:00:55.089Z,9.64
2017-04-14T06:01:55.109Z,9.26
2017-04-14T06:02:55.136Z,9.08
2017-04-14T06:03:55.155Z,8.92
2017-04-14T06:04:55.194Z,9.01
2017-04-14T06:05:55.198Z,9.35
2017-04-14T06:06:55.230Z,9.57
2017-04-14T06:09:55.289Z,10.32
2017-04-14T06:10:55.313Z,10.45
2017-04-14T06:11:55.331Z,10.25
2017-04-14T06:12:55.358Z,10.3
2017-04-14T06:13:55.379Z,10.34
2017-04-14T06:14:55.403Z,10.55
2017-04-14T06:15:55.424Z,10.38
2017-04-14T06:16:55.452Z,10.23
2017-04-14T06:17:55.481Z,10.18
2017-04-14T06:18:55.496Z,10.25
2017-04-14T06:19:55.521Z,10.29
2017-04-14T06:20:55.542Z,10.27
2017-04-14T06:21:55.566Z,10.26
2017-04-14T06:23:55.616Z,10.04
2017-04-14T06:24:55.640Z,10.14
2017-04-14T06:25:55.659Z,10.09
2017-04-14T06:26:55.694Z,10.22
2017-04-14T06:27:55.708Z,10.38
2017-04-14T06:29:10.344Z,10.84
2017-04-14T06:30:10.415Z,10.86
2017-04-14T06:30:55.774Z,11.11
2017-04-14T06:32:10.112Z,11.62
2017-04-14T06:32:55.823Z,11.73
2017-04-14T06:33:55.848Z,11.76
2017-04-14T06:34:55.871Z,11.98
2017-04-14T06:35:55.899Z,12.16
2017-04-14T06:36:55.949Z,12.32
2017-04-14T06:37:55.945Z,12.39
2017-04-14T06:38:55.970Z,12.92
2017-04-14T06:39:56.003Z,13.11
2017-04-14T06:40:56.027Z,12.92
2017-04-14T06:41:56.043Z,13.36
2017-04-14T06:43:10.690Z,13.67
2017-04-14T06:44:10.716Z,14.04
2017-04-14T06:44:55.821Z,13.97
2017-04-14T06:45:56.151Z,13.64
2017-04-14T06:46:56.178Z,13.59
2017-04-14T06:48:10.821Z,13.62
2017-04-14T06:48:56.832Z,13.38
2017-04-14T06:49:56.260Z,13.41
2017-04-14T06:50:56.284Z,13.33
2017-04-14T06:51:56.312Z,13.57
2017-04-14T06:52:56.343Z,13.54
2017-04-14T06:53:56.369Z,13.6
2017-04-14T06:54:56.404Z,14.06
2017-04-14T06:55:56.422Z,13.39
2017-04-14T06:56:56.455Z,13.42
2017-04-14T06:57:56.482Z,13.63
2017-04-14T06:59:11.128Z,13.66
2017-04-14T06:59:56.537Z,13.67
2017-04-14T07:01:11.182Z,13.63
2017-04-14T07:01:56.592Z,13.62
2017-04-14T07:02:56.626Z,13.51
2017-04-14T07:04:11.368Z,13.48
2017-04-14T07:04:56.681Z,13.63
2017-04-14T07:05:56.707Z,14.17
2017-04-14T07:06:56.740Z,14.14
2017-04-14T07:07:56.766Z,14.14
2017-04-14T07:08:56.791Z,14.03
2017-04-14T07:10:56.856Z,14.75
2017-04-14T07:11:56.879Z,14.69
2017-04-14T07:13:11.529Z,14.68
2017-04-14T07:13:56.937Z,14.68
2017-04-14T07:14:56.967Z,14.43
2017-04-14T07:16:11.613Z,14.64
2017-04-14T07:17:11.642Z,15.11
2017-04-14T07:17:57.207Z,15.19
2017-04-14T07:18:57.084Z,15.57
2017-04-14T07:20:11.730Z,16.09
2017-04-14T07:20:57.205Z,15.93
2017-04-14T07:21:57.173Z,15.87
2017-04-14T07:22:57.204Z,15.13
2017-04-14T07:23:57.230Z,14.52
2017-04-14T07:24:57.266Z,14.25
2017-04-14T07:25:57.291Z,13.99
2017-04-14T07:26:57.319Z,13.99
2017-04-14T07:28:11.971Z,13.85
2017-04-14T07:28:57.376Z,13.64
2017-04-14T07:29:57.409Z,13.36
2017-04-14T07:31:11.748Z,13.25
2017-04-14T07:32:12.079Z,13.04
2017-04-14T07:32:57.496Z,12.89
2017-04-14T07:33:57.518Z,12.9
2017-04-14T07:35:12.161Z,13.11
2017-04-14T07:35:57.571Z,13.41
2017-04-14T07:36:57.596Z,13.6
2017-04-14T07:37:57.627Z,13.57
2017-04-14T07:38:57.661Z,13.49
2017-04-14T07:39:57.681Z,12.96
2017-04-14T07:40:57.700Z,12.77
2017-04-14T07:41:57.729Z,12.96
2017-04-14T07:42:57.764Z,12.83
2017-04-14T07:43:57.779Z,12.52
2017-04-14T07:44:57.814Z,12.46
2017-04-14T07:45:57.833Z,12.42
2017-04-14T07:46:57.854Z,12.21
2017-04-14T07:47:57.878Z,12.21
2017-04-14T07:48:57.908Z,11.9
2017-04-14T07:49:57.929Z,11.96
2017-04-14T07:50:57.957Z,11.98
2017-04-14T07:51:57.979Z,12.12
2017-04-14T07:52:58.009Z,12.31
2017-04-14T07:53:58.031Z,12.56
2017-04-14T07:54:58.057Z,12.65
2017-04-14T07:55:58.079Z,12.54
2017-04-14T07:56:58.102Z,12.52
2017-04-14T07:57:58.129Z,12.75
2017-04-14T07:59:12.773Z,12.56
2017-04-14T07:59:58.183Z,12.34
2017-04-14T08:00:57.896Z,12.56
2017-04-14T08:01:58.229Z,12.59
2017-04-14T08:02:58.251Z,12.24
2017-04-14T08:04:12.891Z,12.32
2017-04-14T08:04:58.300Z,12.39
2017-04-14T08:05:58.323Z,12.47
2017-04-14T08:07:12.966Z,12.24
2017-04-14T08:07:58.375Z,12.28
2017-04-14T08:08:58.397Z,12.59
2017-04-14T08:09:58.421Z,12.78
2017-04-14T08:10:58.443Z,13.04
2017-04-14T08:11:58.469Z,13.54
2017-04-14T08:12:58.500Z,13.6
2017-04-14T08:13:58.522Z,13.79
2017-04-14T08:15:58.567Z,13.7
2017-04-14T08:16:58.590Z,13.89
2017-04-14T08:17:58.620Z,14.12
2017-04-14T08:18:58.646Z,13.78
2017-04-14T08:19:58.667Z,13.51
2017-04-14T08:21:13.304Z,13.15
2017-04-14T08:21:58.716Z,12.79
2017-04-14T08:23:13.356Z,12.59
2017-04-14T08:23:58.765Z,12.5
2017-04-14T08:24:58.787Z,12.35
2017-04-14T08:25:58.812Z,12.34
2017-04-14T08:26:58.838Z,12.32
2017-04-14T08:27:58.867Z,12.35
2017-04-14T08:28:58.894Z,12.31
2017-04-14T08:29:58.607Z,12.24
2017-04-14T08:30:58.628Z,12.16
2017-04-14T08:32:58.981Z,12.21
2017-04-14T08:33:59.010Z,12.21
2017-04-14T08:35:13.644Z,12.32
2017-04-14T08:35:59.056Z,12.16
2017-04-14T08:36:59.075Z,12.27
2017-04-14T08:37:59.100Z,12.47
2017-04-14T08:39:13.739Z,12.27
2017-04-14T08:39:59.145Z,12.29
2017-04-14T08:40:59.169Z,12.32
2017-04-14T08:41:59.195Z,12.59
2017-04-14T08:42:59.219Z,12.74
2017-04-14T08:43:59.248Z,12.85
2017-04-14T08:44:58.964Z,12.49
2017-04-14T08:45:59.293Z,12.54
2017-04-14T08:47:59.340Z,12.97
2017-04-14T08:48:59.362Z,13.26
2017-04-14T08:49:59.384Z,13.52
2017-04-14T08:51:14.026Z,13.36
2017-04-14T08:51:59.437Z,13.32
2017-04-14T08:52:59.455Z,13.49
2017-04-14T08:53:59.486Z,13.2
2017-04-14T08:55:14.122Z,13.36
2017-04-14T08:55:59.527Z,13.48
2017-04-14T08:56:59.553Z,13.25
2017-04-14T08:57:59.579Z,12.86
2017-04-14T08:58:59.603Z,12.68
2017-04-14T08:59:59.624Z,12.49
2017-04-14T09:00:59.648Z,12.13
2017-04-14T09:01:59.672Z,12.16
2017-04-14T09:02:59.703Z,12.32
2017-04-14T09:03:59.728Z,12.46
2017-04-14T09:04:59.746Z,12.7
2017-04-14T09:05:59.770Z,12.86
2017-04-14T09:06:59.792Z,12.9
2017-04-14T09:07:59.819Z,13.2
2017-04-14T09:08:59.840Z,13.38
2017-04-14T09:10:14.482Z,13.48
2017-04-14T09:10:59.888Z,13.54
2017-04-14T09:11:59.911Z,13.44
2017-04-14T09:12:59.635Z,13.49
2017-04-14T09:13:59.968Z,13.57
2017-04-14T09:14:59.984Z,13.54
2017-04-14T09:16:00.008Z,13.29
2017-04-14T09:17:00.030Z,13.63
2017-04-14T09:18:00.060Z,13.95
2017-04-14T09:19:00.083Z,14.65
2017-04-14T09:20:00.103Z,15.29
2017-04-14T09:21:00.128Z,15.47
2017-04-14T09:22:00.156Z,15.74
2017-04-14T09:23:00.177Z,15.82
2017-04-14T09:24:00.205Z,15.84
2017-04-14T09:25:00.228Z,15.47
2017-04-14T09:26:00.255Z,15.54
2017-04-14T09:27:00.276Z,15.46
2017-04-14T09:28:00.301Z,15.43
2017-04-14T09:29:00.336Z,15.31
2017-04-14T09:30:00.352Z,14.95
2017-04-14T09:31:00.375Z,14.78
2017-04-14T09:33:00.424Z,14.37
2017-04-14T09:34:00.450Z,13.73
2017-04-14T09:35:00.476Z,13.59
2017-04-14T09:36:00.503Z,13.78
2017-04-14T09:37:00.219Z,13.78
2017-04-14T09:38:15.164Z,13.95
2017-04-14T09:39:15.189Z,14.06
2017-04-14T09:40:00.600Z,13.88
2017-04-14T09:41:00.623Z,14.2
2017-04-14T09:42:15.270Z,14.68
2017-04-14T09:43:00.681Z,15.06
2017-04-14T09:44:00.702Z,14.86
2017-04-14T09:45:00.724Z,15.11
2017-04-14T09:46:00.745Z,15.19
2017-04-14T09:47:00.772Z,15.51
2017-04-14T09:48:01.045Z,15.67
2017-04-14T09:49:00.822Z,15.92
2017-04-14T09:50:00.845Z,16.23
2017-04-14T09:51:00.879Z,16.52
2017-04-14T09:52:00.895Z,16.43
2017-04-14T09:53:00.918Z,16.64
2017-04-14T09:54:00.944Z,17.06
2017-04-14T09:55:00.972Z,17.16
2017-04-14T09:56:00.996Z,17.16
2017-04-14T09:57:01.024Z,17.16
2017-04-14T09:58:15.663Z,16.3
2017-04-14T09:59:01.071Z,16.31
2017-04-14T10:00:01.097Z,16.5
2017-04-14T10:01:01.133Z,16.56
2017-04-14T10:02:01.148Z,16.38
2017-04-14T10:03:01.177Z,16.38
2017-04-14T10:04:01.200Z,16.3
2017-04-14T10:05:15.848Z,16.23
2017-04-14T10:06:01.250Z,16.33
2017-04-14T10:07:01.280Z,16.67
2017-04-14T10:08:01.304Z,16.66
2017-04-14T10:09:01.382Z,17.01
2017-04-14T10:10:15.973Z,16.09
2017-04-14T10:11:15.997Z,16.28
2017-04-14T10:12:01.407Z,16.39
2017-04-14T10:13:01.435Z,16.56
2017-04-14T10:14:16.074Z,16.38
2017-04-14T10:15:01.484Z,16.27
2017-04-14T10:16:01.510Z,15.96
2017-04-14T10:17:01.536Z,16.39
2017-04-14T10:18:01.563Z,16.52
2017-04-14T10:19:01.590Z,16.43
2017-04-14T10:20:01.615Z,16.49
2017-04-14T10:23:01.693Z,15.89
2017-04-14T10:24:16.337Z,15.59
2017-04-14T10:25:01.744Z,15.56
2017-04-14T10:26:01.767Z,15.67
2017-04-14T10:27:16.412Z,15.82
2017-04-14T10:28:01.821Z,15.65
2017-04-14T10:29:01.848Z,15.19
2017-04-14T10:30:16.488Z,15.43
2017-04-14T10:31:01.294Z,15.53
2017-04-14T10:32:01.926Z,15.5
2017-04-14T10:33:01.646Z,15.53
2017-04-14T10:34:01.972Z,15.62
2017-04-14T10:35:01.695Z,15.76
2017-04-14T10:36:16.646Z,15.78
2017-04-14T10:38:02.078Z,15.25
2017-04-14T10:39:02.101Z,15.46
2017-04-14T10:40:02.127Z,15.35
2017-04-14T10:41:02.148Z,15.43
2017-04-14T10:42:02.178Z,15.1
2017-04-14T10:43:02.213Z,15.2
2017-04-14T10:44:02.226Z,15.32
2017-04-14T10:45:16.868Z,14.89
2017-04-14T10:46:02.276Z,14.84
2017-04-14T10:47:02.300Z,14.68
2017-04-14T10:49:02.361Z,14.58
2017-04-14T10:50:02.379Z,14.5
2017-04-14T10:51:02.401Z,14.78
2017-04-14T10:52:02.436Z,14.98
2017-04-14T10:53:02.450Z,15.31
2017-04-14T10:54:02.478Z,15.54
2017-04-14T10:55:02.501Z,15.49
2017-04-14T10:56:02.524Z,15.56
2017-04-14T10:57:17.168Z,15.53
2017-04-14T10:58:02.579Z,15.56
2017-04-14T10:59:02.604Z,15.51
2017-04-14T11:00:02.626Z,15.32
2017-04-14T11:01:02.653Z,15.43
2017-04-14T11:02:02.677Z,15.36
2017-04-14T11:03:02.700Z,15.34
2017-04-14T11:04:02.725Z,15.46
2017-04-14T11:05:02.751Z,15.51
2017-04-14T11:06:02.783Z,15.34
2017-04-14T11:07:02.850Z,15.53
2017-04-14T11:08:02.829Z,15.34
2017-04-14T11:09:02.848Z,15.29
2017-04-14T11:10:02.872Z,15.29
2017-04-14T11:11:02.900Z,15.49
2017-04-14T11:12:02.927Z,15.71
2017-04-14T11:13:02.949Z,15.84
2017-04-14T11:14:02.973Z,16.04
2017-04-14T11:15:03.042Z,16.23
2017-04-14T11:16:03.021Z,16.41
2017-04-14T11:17:17.666Z,16
2017-04-14T11:18:02.770Z,16
2017-04-14T11:19:02.795Z,16.28
2017-04-14T11:20:03.375Z,16.17
2017-04-14T11:21:02.843Z,16.28
2017-04-14T11:22:02.869Z,16.12
2017-04-14T11:23:03.197Z,16.11
2017-04-14T11:24:03.220Z,16.28
2017-04-14T11:25:03.275Z,16.28
2017-04-14T11:26:02.967Z,16.11
2017-04-14T11:27:03.295Z,16.25
2017-04-14T11:28:17.938Z,16.31
2017-04-14T11:29:03.347Z,16.12
2017-04-14T11:30:02.762Z,16.33
2017-04-14T11:31:03.394Z,16.23
2017-04-14T11:32:03.421Z,16.27
2017-04-14T11:33:18.061Z,16.11
2017-04-14T11:34:03.473Z,16.2
2017-04-14T11:35:03.495Z,16.39
2017-04-14T11:36:03.521Z,16.31
2017-04-14T11:37:03.548Z,16.27
2017-04-14T11:38:03.567Z,16.27
2017-04-14T11:40:03.619Z,16.33
2017-04-14T11:41:03.647Z,16.43
2017-04-14T11:42:03.667Z,16.45
2017-04-14T11:43:03.692Z,16.6
2017-04-14T11:44:18.338Z,16.5
2017-04-14T11:45:03.752Z,16.45
2017-04-14T11:46:03.769Z,16.66
2017-04-14T11:47:03.797Z,16.56
2017-04-14T11:48:03.822Z,16.66
2017-04-14T11:49:18.462Z,16.89
2017-04-14T11:50:03.566Z,16.96
2017-04-14T11:51:03.892Z,17.06
2017-04-14T11:52:03.620Z,17.08
2017-04-14T11:53:03.943Z,16.91
2017-04-14T11:54:03.969Z,16.67
2017-04-14T11:55:03.693Z,16.52
2017-04-14T11:56:04.024Z,16.66
2017-04-14T11:57:03.739Z,16.86
2017-04-14T11:58:03.764Z,17.04
2017-04-14T11:59:18.714Z,16.93
2017-04-14T12:00:04.120Z,17.01
2017-04-14T12:01:03.841Z,17.06
2017-04-14T12:02:04.168Z,16.85
2017-04-14T12:03:04.197Z,17.07
2017-04-14T12:04:04.232Z,17.22
2017-04-14T12:05:18.860Z,17.14
2017-04-14T12:06:04.269Z,16.93
2017-04-14T12:07:04.295Z,16.97
2017-04-14T12:08:04.319Z,17.08
2017-04-14T12:09:04.847Z,17.21
2017-04-14T12:10:04.066Z,17.28
2017-04-14T12:11:04.393Z,17.56
2017-04-14T12:12:04.471Z,17.58
2017-04-14T12:13:04.447Z,17.58
2017-04-14T12:15:04.190Z,17.33
2017-04-14T12:16:04.524Z,16.94
2017-04-14T12:17:04.242Z,16.85
2017-04-14T12:18:04.569Z,16.64
2017-04-14T12:19:04.293Z,16.75
2017-04-14T12:20:19.326Z,16.67
2017-04-14T12:21:04.345Z,16.75
2017-04-14T12:22:04.670Z,16.63
2017-04-14T12:23:04.696Z,16.76
2017-04-14T12:25:04.746Z,16.86
2017-04-14T12:26:04.780Z,16.88
2017-04-14T12:28:04.829Z,16.61
2017-04-14T12:29:04.861Z,16.66
2017-04-14T12:31:04.899Z,16.45
2017-04-14T12:32:19.539Z,16.49
2017-04-14T12:33:19.563Z,16.64
2017-04-14T12:34:04.972Z,16.56
2017-04-14T12:35:05.001Z,16.64
2017-04-14T12:36:05.272Z,16.76
2017-04-14T12:37:05.046Z,16.82
2017-04-14T12:38:05.075Z,16.93
2017-04-14T12:39:05.094Z,16.85
2017-04-14T12:40:04.819Z,16.7
2017-04-14T12:41:05.145Z,16.63
2017-04-14T12:42:05.168Z,16.61
2017-04-14T12:43:05.195Z,16.31
2017-04-14T12:45:05.244Z,16.05
2017-04-14T12:46:05.277Z,16.05
2017-04-14T12:47:05.295Z,15.9
2017-04-14T12:48:19.936Z,15.84
2017-04-14T12:49:05.345Z,15.96
2017-04-14T12:50:05.064Z,15.89
2017-04-14T12:51:05.401Z,15.5
2017-04-14T12:52:20.036Z,15.16
2017-04-14T12:53:05.440Z,15.13
2017-04-14T12:54:05.466Z,15.09
2017-04-14T12:55:05.637Z,15.2
2017-04-14T12:56:05.516Z,15.32
2017-04-14T12:57:05.542Z,15.25
2017-04-14T12:58:05.573Z,15.44
2017-04-14T12:59:05.588Z,15.74
2017-04-14T13:01:05.640Z,15.82
2017-04-14T13:02:05.662Z,15.87
2017-04-14T13:03:05.384Z,15.9
2017-04-14T13:04:20.329Z,16.11
2017-04-14T13:05:20.351Z,16.05
2017-04-14T13:06:20.376Z,15.87
2017-04-14T13:07:05.483Z,15.89
2017-04-14T13:08:20.424Z,15.87
2017-04-14T13:09:05.834Z,16.01
2017-04-14T13:10:05.856Z,16.11
2017-04-14T13:11:05.879Z,16.11
2017-04-14T13:12:05.907Z,16.02
2017-04-14T13:13:05.928Z,16.09
2017-04-14T13:14:05.955Z,15.92
2017-04-14T13:15:05.681Z,15.74
2017-04-14T13:16:06.012Z,15.64
2017-04-14T13:18:06.061Z,15.51
2017-04-14T13:19:05.776Z,15.53
2017-04-14T13:20:06.102Z,15.47
2017-04-14T13:21:05.822Z,15.43
2017-04-14T13:22:06.149Z,15.23
2017-04-14T13:23:05.874Z,15.1
2017-04-14T13:24:20.813Z,15.2
2017-04-14T13:25:06.236Z,15.29
2017-04-14T13:26:06.249Z,15.09
2017-04-14T13:27:06.271Z,15.23
2017-04-14T13:28:06.296Z,15.29
2017-04-14T13:29:06.318Z,15.27
2017-04-14T13:31:06.367Z,15.23
2017-04-14T13:32:06.390Z,15.25
2017-04-14T13:33:06.419Z,15.41
2017-04-14T13:34:21.060Z,15.29
2017-04-14T13:35:06.462Z,15.27
2017-04-14T13:36:21.104Z,15.1
2017-04-14T13:37:21.127Z,14.95
2017-04-14T13:38:06.533Z,14.78
2017-04-14T13:39:06.560Z,14.8
2017-04-14T13:40:21.200Z,14.84
2017-04-14T13:41:06.011Z,14.75
2017-04-14T13:42:06.633Z,14.88
2017-04-14T13:43:06.712Z,14.77
2017-04-14T13:44:21.305Z,14.91
2017-04-14T13:45:06.703Z,14.62
2017-04-14T13:46:06.425Z,14.81
2017-04-14T13:47:06.751Z,15.02
2017-04-14T13:49:06.805Z,14.98
2017-04-14T13:50:06.823Z,15.07
2017-04-14T13:51:06.846Z,15.13
2017-04-14T13:52:06.569Z,15.09